createdAt,value
2023-01-15T00:02:07.980Z,60.05
2023-01-15T00:05:09.431Z,59.25
2023-01-15T00:08:10.815Z,58.88
2023-01-15T00:11:12.987Z,59.26
2023-01-15T00:14:14.407Z,59.52
2023-01-15T00:17:15.818Z,59.21
2023-01-15T00:20:17.263Z,60.48
2023-01-15T00:23:38.633Z,61.92
2023-01-15T00:26:58.981Z,63.05
2023-01-15T00:30:00.393Z,63.33
2023-01-15T00:33:01.833Z,63.08
2023-01-15T00:36:03.378Z,64.39
2023-01-15T00:39:04.964Z,64.47
2023-01-15T00:42:06.352Z,63.90
2023-01-15T00:45:12.255Z,63.60
2023-01-15T00:48:14.131Z,63.22
2023-01-15T00:51:15.594Z,63.26
2023-01-15T00:54:17.635Z,63.27
2023-01-15T00:57:19.074Z,62.61
2023-01-15T01:00:21.322Z,61.90
2023-01-15T01:03:23.571Z,61.96
2023-01-15T01:06:24.977Z,63.40
2023-01-15T01:09:26.483Z,62.97
2023-01-15T01:12:28.470Z,62.39
2023-01-15T01:15:29.908Z,62.45
2023-01-15T01:18:31.400Z,62.65
2023-01-15T01:21:33.069Z,62.22
2023-01-15T01:24:34.710Z,62.06
2023-01-15T01:27:36.427Z,62.16
2023-01-15T01:30:38.539Z,62.74
2023-01-15T01:33:39.925Z,62.68
2023-01-15T01:36:44.014Z,63.01
2023-01-15T01:39:45.515Z,62.34
2023-01-15T01:42:46.976Z,61.98
2023-01-15T01:45:48.549Z,62.87
2023-01-15T01:48:53.881Z,62.49
2023-01-15T01:52:00.838Z,61.67
2023-01-15T01:55:04.174Z,62.12
2023-01-15T01:58:09.743Z,62.36
2023-01-15T02:01:11.333Z,63.08
2023-01-15T02:04:13.260Z,61.80
2023-01-15T02:07:14.960Z,61.98
2023-01-15T02:10:17.275Z,62.76
2023-01-15T02:13:46.313Z,62.36
2023-01-15T02:16:57.187Z,62.01
2023-01-15T02:20:37.400Z,63.21
2023-01-15T02:23:58.282Z,63.73
2023-01-15T02:27:15.088Z,63.85
2023-01-15T02:30:25.269Z,63.29
2023-01-15T02:33:36.758Z,64.29
2023-01-15T02:36:44.457Z,64.44
2023-01-15T02:39:58.153Z,64.47
2023-01-15T02:43:01.054Z,64.96
2023-01-15T02:46:05.219Z,64.50
2023-01-15T02:49:09.348Z,64.74
2023-01-15T02:52:21.335Z,63.36
2023-01-15T02:55:31.051Z,63.34
2023-01-15T02:58:37.197Z,64.01
2023-01-15T03:01:51.266Z,65.30
2023-01-15T03:04:58.563Z,65.31
2023-01-15T03:08:05.923Z,64.30
2023-01-15T03:11:13.076Z,64.68
2023-01-15T03:14:39.452Z,64.87
2023-01-15T03:17:53.784Z,64.69
2023-01-15T03:21:01.882Z,65.52
2023-01-15T03:24:05.885Z,64.48
2023-01-15T03:27:08.092Z,64.24
2023-01-15T03:30:20.269Z,64.57
2023-01-15T03:33:24.109Z,65.14
2023-01-15T03:36:25.521Z,66.18
2023-01-15T03:39:28.789Z,65.11
2023-01-15T03:43:17.033Z,64.90
2023-01-15T03:46:23.006Z,65.14
2023-01-15T03:49:40.672Z,65.09
2023-01-15T03:53:15.045Z,64.24
2023-01-15T03:56:55.364Z,64.37
2023-01-15T04:00:02.304Z,64.49
2023-01-15T04:03:09.468Z,66.35
2023-01-15T04:06:11.524Z,67.44
2023-01-15T04:09:14.904Z,67.21
2023-01-15T04:12:18.409Z,67.36
2023-01-15T04:15:22.630Z,67.10
2023-01-15T04:18:24.488Z,67.74
2023-01-15T04:21:26.591Z,68.17
2023-01-15T04:24:28.053Z,67.61
2023-01-15T04:27:29.604Z,68.25
2023-01-15T04:30:31.178Z,67.66
2023-01-15T04:33:32.677Z,68.14
2023-01-15T04:36:36.987Z,68.88
2023-01-15T04:39:38.476Z,68.22
2023-01-15T04:42:58.352Z,68.98
2023-01-15T04:46:00.157Z,73.24
2023-01-15T04:49:02.082Z,74.16
2023-01-15T04:52:03.862Z,74.08
2023-01-15T04:55:05.673Z,74.86
2023-01-15T04:58:07.430Z,75.33
2023-01-15T05:01:16.874Z,75.58
2023-01-15T05:04:19.300Z,74.59
2023-01-15T05:07:20.797Z,73.18
2023-01-15T05:10:22.199Z,74.02
2023-01-15T05:13:23.621Z,73.48
2023-01-15T05:16:27.855Z,72.31
2023-01-15T05:19:29.277Z,71.78
2023-01-15T05:22:30.705Z,73.28
2023-01-15T05:25:32.207Z,72.08
2023-01-15T05:28:33.679Z,73.20
2023-01-15T05:31:35.131Z,73.54
2023-01-15T05:34:36.577Z,72.87
2023-01-15T05:37:38.020Z,71.37
2023-01-15T05:40:39.473Z,72.01
2023-01-15T05:43:40.916Z,73.08
2023-01-15T05:46:43.364Z,71.37
2023-01-15T05:49:44.754Z,72.84
2023-01-15T05:52:46.158Z,71.54
2023-01-15T05:55:47.589Z,71.31
2023-01-15T05:58:49.003Z,71.40
2023-01-15T06:01:50.585Z,70.82
2023-01-15T06:04:51.999Z,70.40
2023-01-15T06:07:53.493Z,71.45
2023-01-15T06:10:54.922Z,71.10
2023-01-15T06:13:56.425Z,71.45
2023-01-15T06:16:57.831Z,71.72
2023-01-15T06:19:59.193Z,71.44
2023-01-15T06:23:00.668Z,70.65
2023-01-15T06:26:04.365Z,70.71
2023-01-15T06:29:05.808Z,70.60
2023-01-15T06:32:07.213Z,70.68
2023-01-15T06:35:09.131Z,70.68
2023-01-15T06:38:10.646Z,71.27
2023-01-15T06:41:33.408Z,70.73
2023-01-15T06:44:53.272Z,70.84
2023-01-15T06:47:54.741Z,71.02
2023-01-15T06:50:56.274Z,70.20
2023-01-15T06:53:57.703Z,70.84
2023-01-15T06:56:59.644Z,70.32
2023-01-15T07:00:01.062Z,70.52
2023-01-15T07:03:04.077Z,70.77
2023-01-15T07:06:10.637Z,70.73
2023-01-15T07:09:12.562Z,70.20
2023-01-15T07:12:13.952Z,70.57
2023-01-15T07:15:15.489Z,70.28
2023-01-15T07:18:16.881Z,69.89
2023-01-15T07:21:18.798Z,70.05
2023-01-15T07:24:20.266Z,70.32
2023-01-15T07:27:21.647Z,70.87
2023-01-15T07:30:23.086Z,72.41
2023-01-15T07:33:24.520Z,72.10
2023-01-15T07:36:26.199Z,70.09
2023-01-15T07:39:28.392Z,69.82
2023-01-15T07:42:48.468Z,70.32
2023-01-15T07:46:08.871Z,69.94
2023-01-15T07:49:29.875Z,69.79
2023-01-15T07:52:31.280Z,70.16
2023-01-15T07:55:34.427Z,70.90
2023-01-15T07:58:35.817Z,70.10
2023-01-15T08:01:37.342Z,70.04
2023-01-15T08:04:38.986Z,70.13
2023-01-15T08:07:41.959Z,69.25
2023-01-15T08:11:04.614Z,69.60
2023-01-15T08:14:24.689Z,71.16
2023-01-15T08:17:26.072Z,71.23
2023-01-15T08:20:27.590Z,70.77
2023-01-15T08:23:29.220Z,71.03
2023-01-15T08:26:30.812Z,70.84
2023-01-15T08:29:32.382Z,72.08
2023-01-15T08:32:33.975Z,71.30
2023-01-15T08:35:35.536Z,70.89
2023-01-15T08:38:37.134Z,70.65
2023-01-15T08:41:38.529Z,70.22
2023-01-15T08:44:39.950Z,70.12
2023-01-15T08:47:41.385Z,70.75
2023-01-15T08:50:42.776Z,71.62
2023-01-15T08:53:44.186Z,71.84
2023-01-15T08:56:47.093Z,71.40
2023-01-15T08:59:48.508Z,72.43
2023-01-15T09:02:50.325Z,71.91
2023-01-15T09:05:51.893Z,69.92
2023-01-15T09:08:53.373Z,70.17
2023-01-15T09:11:54.837Z,68.78
2023-01-15T09:15:02.810Z,68.71
2023-01-15T09:18:05.017Z,69.06
2023-01-15T09:21:06.824Z,68.44
2023-01-15T09:24:08.446Z,69.02
2023-01-15T09:27:12.724Z,68.01
2023-01-15T09:30:19.216Z,67.89
2023-01-15T09:33:20.984Z,67.66
2023-01-15T09:40:39.464Z,67.25
2023-01-15T09:44:09.378Z,67.72
2023-01-15T09:47:30.170Z,68.21
2023-01-15T09:50:53.534Z,67.24
2023-01-15T09:54:27.235Z,68.23
2023-01-15T09:57:30.198Z,67.92
2023-01-15T10:00:45.861Z,67.80
2023-01-15T10:04:12.588Z,67.42
2023-01-15T10:07:49.300Z,67.29
2023-01-15T10:10:59.426Z,66.91
2023-01-15T10:14:11.409Z,66.64
2023-01-15T10:17:24.919Z,65.87
2023-01-15T10:21:00.515Z,65.88
2023-01-15T10:24:29.887Z,66.40
2023-01-15T10:27:33.331Z,66.61
2023-01-15T10:30:46.638Z,67.53
2023-01-15T10:34:06.069Z,67.73
2023-01-15T10:37:17.010Z,66.68
2023-01-15T10:40:45.699Z,66.63
2023-01-15T10:43:52.511Z,66.12
2023-01-15T10:46:59.018Z,66.38
2023-01-15T10:50:02.895Z,65.60
2023-01-15T10:53:32.290Z,65.40
2023-01-15T10:56:42.805Z,66.08
2023-01-15T11:00:00.494Z,65.75
2023-01-15T11:03:08.357Z,66.96
2023-01-15T11:06:18.773Z,66.04
2023-01-15T11:09:23.963Z,68.38
2023-01-15T11:12:47.672Z,69.71
2023-01-15T11:16:08.896Z,69.37
2023-01-15T11:19:40.156Z,69.28
2023-01-15T11:22:43.605Z,68.45
2023-01-15T11:25:52.317Z,68.59
2023-01-15T11:28:55.993Z,68.38
2023-01-15T11:31:57.487Z,68.82
2023-01-15T11:35:01.164Z,68.61
2023-01-15T11:38:05.037Z,68.05
2023-01-15T11:41:06.558Z,67.64
2023-01-15T11:44:28.653Z,66.26
2023-01-15T11:47:48.614Z,67.15
2023-01-15T11:50:55.509Z,66.36
2023-01-15T11:54:04.061Z,66.56
2023-01-15T11:57:06.900Z,66.60
2023-01-15T12:00:27.117Z,65.85
2023-01-15T12:03:31.281Z,66.31
2023-01-15T12:06:37.378Z,66.39
2023-01-15T12:10:04.591Z,66.67
2023-01-15T12:13:34.031Z,65.51
2023-01-15T12:16:45.431Z,66.07
2023-01-15T12:20:04.859Z,65.50
2023-01-15T12:23:48.935Z,64.98
2023-01-15T12:27:09.206Z,65.31
2023-01-15T12:30:13.474Z,65.41
2023-01-15T12:33:21.014Z,65.18
2023-01-15T12:36:29.571Z,64.56
2023-01-15T12:39:37.066Z,64.91
2023-01-15T12:42:57.537Z,64.42
2023-01-15T12:46:01.559Z,63.85
2023-01-15T12:49:34.465Z,64.08
2023-01-15T12:52:40.592Z,64.87
2023-01-15T12:55:56.023Z,64.77
2023-01-15T12:59:16.691Z,63.29
2023-01-15T13:02:38.191Z,64.10
2023-01-15T13:05:48.070Z,63.16
2023-01-15T13:09:00.386Z,62.24
2023-01-15T13:12:01.834Z,64.02
2023-01-15T13:15:04.603Z,64.02
2023-01-15T13:18:22.984Z,62.76
2023-01-15T13:21:29.332Z,61.95
2023-01-15T13:24:49.789Z,62.50
2023-01-15T13:28:15.460Z,63.00
2023-01-15T13:31:16.985Z,62.47
2023-01-15T13:34:24.415Z,61.58
2023-01-15T13:37:30.347Z,61.62
2023-01-15T13:40:35.917Z,62.13
2023-01-15T13:43:41.335Z,62.20
2023-01-15T13:46:43.765Z,63.31
2023-01-15T13:49:50.435Z,62.56
2023-01-15T13:53:01.879Z,61.54
2023-01-15T13:56:14.987Z,62.29
2023-01-15T13:59:39.774Z,61.55
2023-01-15T14:02:52.087Z,62.00
2023-01-15T14:05:58.904Z,62.11
2023-01-15T14:09:00.430Z,62.05
2023-01-15T14:12:07.685Z,61.35
2023-01-15T14:15:43.635Z,62.67
2023-01-15T14:19:07.950Z,61.41
2023-01-15T14:22:57.029Z,60.03
2023-01-15T14:26:12.131Z,60.03
2023-01-15T14:29:53.152Z,59.10
2023-01-15T14:33:07.217Z,59.69
2023-01-15T14:36:14.900Z,59.36
2023-01-15T14:39:35.210Z,60.30
2023-01-15T14:42:59.434Z,60.74
2023-01-15T14:46:41.210Z,61.70
2023-01-15T14:49:49.496Z,61.28
2023-01-15T14:52:53.148Z,61.20
2023-01-15T14:56:04.468Z,60.05
2023-01-15T14:59:16.575Z,60.19
2023-01-15T15:02:25.375Z,60.51
2023-01-15T15:05:29.668Z,61.46
2023-01-15T15:08:34.416Z,61.41
2023-01-15T15:12:02.148Z,61.05
2023-01-15T15:15:22.491Z,61.12
2023-01-15T15:18:32.103Z,60.87
2023-01-15T15:21:42.061Z,62.11
2023-01-15T15:24:52.055Z,61.79
2023-01-15T15:28:05.242Z,61.25
2023-01-15T15:31:09.742Z,61.32
2023-01-15T15:34:19.396Z,61.74
2023-01-15T15:37:25.094Z,61.35
2023-01-15T15:40:33.525Z,61.01
2023-01-15T15:44:16.692Z,60.34
2023-01-15T15:47:42.540Z,61.23
2023-01-15T15:50:47.856Z,60.19
2023-01-15T15:53:49.352Z,60.36
2023-01-15T15:57:09.764Z,61.22
2023-01-15T16:00:19.393Z,60.46
2023-01-15T16:03:32.771Z,60.31
2023-01-15T16:06:36.277Z,60.10
2023-01-15T16:09:38.931Z,59.30
2023-01-15T16:12:52.714Z,59.24
2023-01-15T16:15:56.980Z,59.15
2023-01-15T16:19:00.362Z,59.60
2023-01-15T16:22:02.281Z,58.73
2023-01-15T16:25:04.140Z,60.00
2023-01-15T16:28:06.353Z,59.50
2023-01-15T16:31:08.571Z,59.90
2023-01-15T16:34:19.244Z,59.17
2023-01-15T16:37:35.328Z,59.18
2023-01-15T16:40:40.419Z,59.88
2023-01-15T16:43:55.221Z,59.33
2023-01-15T16:46:59.879Z,59.70
2023-01-15T16:50:25.974Z,59.23
2023-01-15T16:53:36.465Z,59.01
2023-01-15T16:56:38.018Z,58.91
2023-01-15T16:59:45.581Z,58.95
2023-01-15T17:02:47.253Z,58.68
2023-01-15T17:05:52.883Z,58.87
2023-01-15T17:08:55.956Z,58.22
2023-01-15T17:11:57.553Z,59.13
2023-01-15T17:15:19.837Z,58.73
2023-01-15T17:18:26.981Z,58.49
2023-01-15T17:21:29.284Z,58.86
2023-01-15T17:24:30.625Z,58.34
2023-01-15T17:27:32.288Z,57.78
2023-01-15T17:30:34.638Z,58.29
2023-01-15T17:33:36.085Z,58.12
2023-01-15T17:36:37.514Z,57.67
2023-01-15T17:39:39.095Z,57.74
2023-01-15T17:42:40.476Z,57.53
2023-01-15T17:45:42.923Z,56.92
2023-01-15T17:48:44.457Z,56.98
2023-01-15T17:51:45.877Z,57.13
2023-01-15T17:55:05.967Z,57.19
2023-01-15T17:58:30.562Z,56.73
2023-01-15T18:02:03.847Z,56.24
2023-01-15T18:05:24.988Z,56.59
2023-01-15T18:08:26.617Z,57.14
2023-01-15T18:11:28.203Z,56.07
2023-01-15T18:14:29.602Z,56.26
2023-01-15T18:17:31.697Z,57.21
2023-01-15T18:20:33.814Z,56.41
2023-01-15T18:23:39.324Z,55.52
2023-01-15T18:26:41.770Z,56.62
2023-01-15T18:29:43.697Z,55.69
2023-01-15T18:32:45.705Z,55.93
2023-01-15T18:35:47.272Z,56.08
2023-01-15T18:38:48.880Z,56.15
2023-01-15T18:41:50.550Z,56.05
2023-01-15T18:45:10.423Z,56.28
2023-01-15T18:48:11.904Z,55.73
2023-01-15T18:51:13.317Z,55.97
2023-01-15T18:54:14.707Z,56.79
2023-01-15T18:57:16.656Z,56.09
2023-01-15T19:00:19.991Z,55.70
2023-01-15T19:03:21.387Z,55.93
2023-01-15T19:06:22.798Z,55.71
2023-01-15T19:09:24.405Z,55.55
2023-01-15T19:12:25.835Z,55.28
2023-01-15T19:15:45.924Z,54.72
2023-01-15T19:18:53.489Z,55.30
2023-01-15T19:22:15.280Z,54.97
2023-01-15T19:25:17.290Z,54.37
2023-01-15T19:28:20.838Z,54.75
2023-01-15T19:31:39.123Z,55.64
2023-01-15T19:34:40.639Z,54.62
2023-01-15T19:37:42.197Z,55.12
2023-01-15T19:40:43.968Z,54.85
2023-01-15T19:44:03.862Z,54.80
2023-01-15T19:47:30.836Z,54.70
2023-01-15T19:50:38.705Z,54.42
2023-01-15T19:53:40.573Z,54.63
2023-01-15T19:56:42.245Z,53.87
2023-01-15T19:59:48.004Z,53.63
2023-01-15T20:02:49.794Z,53.49
2023-01-15T20:05:51.212Z,53.61
2023-01-15T20:08:52.879Z,53.70
2023-01-15T20:12:12.753Z,53.97
2023-01-15T20:15:14.321Z,53.22
2023-01-15T20:18:17.195Z,53.29
2023-01-15T20:21:18.964Z,53.73
2023-01-15T20:24:20.398Z,52.89
2023-01-15T20:27:21.948Z,53.98
2023-01-15T20:30:24.028Z,53.12
2023-01-15T20:33:25.478Z,53.46
2023-01-15T20:36:27.138Z,53.06
2023-01-15T20:39:28.540Z,53.47
2023-01-15T20:42:48.641Z,53.48
2023-01-15T20:45:51.735Z,53.78
2023-01-15T20:49:12.099Z,53.53
2023-01-15T20:52:13.548Z,53.78
2023-01-15T20:55:16.591Z,53.90
2023-01-15T20:58:18.015Z,53.73
2023-01-15T21:01:19.721Z,53.68
2023-01-15T21:04:21.371Z,54.45
2023-01-15T21:07:24.394Z,53.37
2023-01-15T21:10:25.951Z,53.08
2023-01-15T21:13:27.395Z,53.16
2023-01-15T21:16:28.831Z,53.41
2023-01-15T21:19:30.499Z,53.09
2023-01-15T21:22:31.914Z,52.64
2023-01-15T21:25:33.524Z,52.09
2023-01-15T21:28:34.980Z,52.53
2023-01-15T21:31:36.487Z,53.03
2023-01-15T21:34:38.151Z,52.11
2023-01-15T21:37:39.570Z,51.97
2023-01-15T21:40:41.074Z,52.63
2023-01-15T21:44:01.926Z,52.61
2023-01-15T21:47:08.072Z,51.84
2023-01-15T21:50:10.287Z,52.10
2023-01-15T21:53:11.878Z,51.46
2023-01-15T21:56:13.387Z,52.38
2023-01-15T21:59:15.035Z,52.38
2023-01-15T22:02:20.126Z,52.16
2023-01-15T22:05:22.740Z,51.95
2023-01-15T22:08:24.129Z,52.55
2023-01-15T22:11:43.429Z,52.05
2023-01-15T22:14:44.987Z,52.26
2023-01-15T22:17:51.526Z,51.75
2023-01-15T22:21:07.287Z,51.78
2023-01-15T22:24:08.708Z,51.14
2023-01-15T22:27:15.065Z,50.20
2023-01-15T22:30:17.373Z,50.44
2023-01-15T22:33:18.706Z,50.15
2023-01-15T22:36:23.179Z,50.84
2023-01-15T22:39:26.121Z,50.61
2023-01-15T22:42:27.868Z,50.66
2023-01-15T22:45:29.434Z,50.44
2023-01-15T22:48:30.879Z,51.08
2023-01-15T22:51:32.339Z,51.32
2023-01-15T22:54:33.726Z,51.59
2023-01-15T22:57:36.193Z,51.10
2023-01-15T23:00:37.626Z,51.83
2023-01-15T23:03:39.069Z,51.18
2023-01-15T23:06:40.639Z,51.45
2023-01-15T23:09:42.122Z,50.82
2023-01-15T23:12:43.592Z,50.95
2023-01-15T23:15:45.041Z,53.25
2023-01-15T23:18:46.463Z,51.16
2023-01-15T23:21:47.899Z,51.28
2023-01-15T23:24:49.302Z,50.67
2023-01-15T23:27:50.720Z,50.33
2023-01-15T23:30:52.872Z,51.27
2023-01-15T23:33:54.701Z,51.12
2023-01-15T23:36:56.134Z,50.87
2023-01-15T23:39:57.654Z,50.94
2023-01-15T23:43:17.664Z,50.58
2023-01-15T23:46:37.245Z,51.23
2023-01-15T23:49:38.705Z,51.49
2023-01-15T23:52:40.116Z,51.40
2023-01-15T23:55:41.546Z,51.51
2023-01-15T23:58:42.939Z,51.47
